createdAt,value
2023-09-06T00:02:45.232Z,16.67
2023-09-06T00:07:47.842Z,16.61
2023-09-06T00:12:50.483Z,16.55
2023-09-06T00:17:54.537Z,16.50
2023-09-06T00:23:00.471Z,16.46
2023-09-06T00:28:07.525Z,16.45
2023-09-06T00:33:10.737Z,16.43
2023-09-06T00:38:13.950Z,16.33
2023-09-06T00:43:16.667Z,16.29
2023-09-06T00:48:31.184Z,16.24
2023-09-06T00:53:34.203Z,16.20
2023-09-06T00:58:37.982Z,16.21
2023-09-06T01:03:43.775Z,16.26
2023-09-06T01:09:00.093Z,16.24
2023-09-06T01:14:03.895Z,16.21
2023-09-06T01:19:14.514Z,16.17
2023-09-06T01:24:18.535Z,16.06
2023-09-06T01:29:21.845Z,16.04
2023-09-06T01:34:24.484Z,16.01
2023-09-06T01:39:28.335Z,16.05
2023-09-06T01:44:33.338Z,16.08
2023-09-06T01:49:35.953Z,16.06
2023-09-06T01:54:38.452Z,16.02
2023-09-06T01:59:41.103Z,15.93
2023-09-06T02:04:44.286Z,15.88
2023-09-06T02:09:46.796Z,15.87
2023-09-06T02:14:50.518Z,15.81
2023-09-06T02:19:54.023Z,15.75
2023-09-06T02:24:56.725Z,15.66
2023-09-06T02:29:59.274Z,15.57
2023-09-06T02:35:03.392Z,15.49
2023-09-06T02:40:19.648Z,15.34
2023-09-06T02:45:24.117Z,15.22
2023-09-06T02:50:27.414Z,15.13
2023-09-06T02:55:30.251Z,15.07
2023-09-06T03:00:37.473Z,15.03
2023-09-06T03:05:43.555Z,14.95
2023-09-06T03:10:46.040Z,14.90
2023-09-06T03:15:52.951Z,14.85
2023-09-06T03:20:56.786Z,14.88
2023-09-06T03:25:59.948Z,14.83
2023-09-06T03:31:02.703Z,14.75
2023-09-06T03:36:09.050Z,14.77
2023-09-06T03:41:11.752Z,14.79
2023-09-06T03:46:16.022Z,14.80
2023-09-06T03:51:20.617Z,14.76
2023-09-06T03:56:23.867Z,14.66
2023-09-06T04:01:28.229Z,14.59
2023-09-06T04:06:30.848Z,14.50
2023-09-06T04:11:33.281Z,14.38
2023-09-06T04:16:39.325Z,14.26
2023-09-06T04:21:42.694Z,14.24
2023-09-06T04:26:45.350Z,14.32
2023-09-06T04:31:47.820Z,14.42
2023-09-06T04:36:50.891Z,14.60
2023-09-06T04:41:53.454Z,14.73
2023-09-06T04:46:56.260Z,14.87
2023-09-06T04:51:58.904Z,15.00
2023-09-06T04:57:02.207Z,15.34
2023-09-06T05:02:05.368Z,15.83
2023-09-06T05:07:07.908Z,16.21
2023-09-06T05:12:10.720Z,16.27
2023-09-06T05:17:13.236Z,16.30
2023-09-06T05:22:15.976Z,16.37
2023-09-06T05:27:19.257Z,16.55
2023-09-06T05:32:23.946Z,16.61
2023-09-06T05:37:27.862Z,16.72
2023-09-06T05:42:30.491Z,16.87
2023-09-06T05:47:34.779Z,16.97
2023-09-06T05:52:37.680Z,17.19
2023-09-06T05:57:40.734Z,17.76
2023-09-06T06:02:45.922Z,18.09
2023-09-06T06:07:49.192Z,18.75
2023-09-06T06:12:52.643Z,19.51
2023-09-06T06:17:55.273Z,19.97
2023-09-06T06:22:57.676Z,20.55
2023-09-06T06:28:00.312Z,21.16
2023-09-06T06:33:04.099Z,21.72
2023-09-06T06:38:09.181Z,21.94
2023-09-06T06:43:13.178Z,22.13
2023-09-06T06:48:15.877Z,22.33
2023-09-06T06:53:19.400Z,22.58
2023-09-06T08:02:40.988Z,29.04
2023-09-06T08:07:44.872Z,30.05
2023-09-06T08:12:47.979Z,30.08
2023-09-06T08:17:51.325Z,30.35
2023-09-06T08:22:54.301Z,30.44
2023-09-06T08:27:57.501Z,30.36
2023-09-06T08:33:00.638Z,30.69
2023-09-06T08:38:04.137Z,30.81
2023-09-06T08:43:07.217Z,30.98
2023-09-06T08:48:10.637Z,31.11
2023-09-06T08:53:16.518Z,31.14
2023-09-06T08:58:22.784Z,31.23
2023-09-06T09:03:25.918Z,31.57
2023-09-06T09:08:31.963Z,31.78
2023-09-06T09:13:34.850Z,32.02
2023-09-06T09:18:45.573Z,32.20
2023-09-06T09:23:57.147Z,32.46
2023-09-06T09:29:04.874Z,32.65
2023-09-06T09:34:07.869Z,32.75
2023-09-06T09:39:15.001Z,33.13
2023-09-06T09:44:21.012Z,33.30
2023-09-06T09:49:26.654Z,32.87
2023-09-06T09:54:36.773Z,32.71
2023-09-06T09:59:43.764Z,32.79
2023-09-06T10:04:47.860Z,33.07
2023-09-06T10:09:51.799Z,33.30
2023-09-06T10:14:56.032Z,33.07
2023-09-06T10:19:58.732Z,33.24
2023-09-06T10:25:08.623Z,33.02
2023-09-06T10:30:13.187Z,33.10
2023-09-06T10:35:31.463Z,33.40
2023-09-06T10:41:07.887Z,33.49
2023-09-06T10:46:10.829Z,33.64
2023-09-06T10:51:15.686Z,33.53
2023-09-06T10:56:30.057Z,33.48
2023-09-06T11:01:46.690Z,33.23
2023-09-06T11:06:56.555Z,33.39
2023-09-06T11:12:00.144Z,33.40
2023-09-06T11:17:02.645Z,33.17
2023-09-06T11:22:11.858Z,33.31
2023-09-06T11:27:35.195Z,33.60
2023-09-06T11:32:46.225Z,34.01
2023-09-06T11:37:54.175Z,34.22
2023-09-06T11:43:03.815Z,34.47
2023-09-06T11:48:10.774Z,34.26
2023-09-06T11:53:16.577Z,33.72
2023-09-06T11:58:30.823Z,33.47
2023-09-06T12:03:36.857Z,34.10
2023-09-06T12:08:39.863Z,34.36
2023-09-06T12:13:42.779Z,34.16
2023-09-06T12:18:46.592Z,34.18
2023-09-06T12:23:49.906Z,34.28
2023-09-06T12:28:52.710Z,34.09
2023-09-06T12:33:58.054Z,33.92
2023-09-06T12:39:00.669Z,34.28
2023-09-06T12:44:05.376Z,34.19
2023-09-06T12:49:09.955Z,33.75
2023-09-06T12:54:12.666Z,33.56
2023-09-06T12:59:15.332Z,33.51
2023-09-06T13:04:18.208Z,33.68
2023-09-06T13:09:22.996Z,33.59
2023-09-06T13:14:25.612Z,33.66
2023-09-06T13:19:28.249Z,33.63
2023-09-06T13:24:34.612Z,33.62
2023-09-06T13:29:39.924Z,33.74
2023-09-06T13:34:42.670Z,33.51
2023-09-06T13:39:45.769Z,32.84
2023-09-06T13:44:49.464Z,32.51
2023-09-06T13:49:53.094Z,32.05
2023-09-06T13:54:55.599Z,31.81
2023-09-06T13:59:58.389Z,31.98
2023-09-06T14:05:01.628Z,31.61
2023-09-06T14:10:05.391Z,31.36
2023-09-06T14:15:08.746Z,31.03
2023-09-06T14:20:11.961Z,30.95
2023-09-06T14:25:14.567Z,30.71
2023-09-06T14:30:17.461Z,30.68
2023-09-06T14:35:20.808Z,30.87
2023-09-06T14:40:23.629Z,31.06
2023-09-06T14:45:28.593Z,31.17
2023-09-06T14:50:32.949Z,31.02
2023-09-06T14:55:35.764Z,30.64
2023-09-06T15:00:38.409Z,30.23
2023-09-06T15:05:44.024Z,29.86
2023-09-06T15:10:53.379Z,29.55
2023-09-06T15:15:56.988Z,29.30
2023-09-06T15:21:02.449Z,29.04
2023-09-06T15:26:07.210Z,28.81
2023-09-06T15:31:09.860Z,28.62
2023-09-06T15:36:12.529Z,28.49
2023-09-06T15:41:20.358Z,28.34
2023-09-06T15:46:23.414Z,28.27
2023-09-06T15:51:26.851Z,28.11
2023-09-06T15:56:30.094Z,28.03
2023-09-06T16:01:33.549Z,27.94
2023-09-06T16:06:36.859Z,27.85
2023-09-06T16:11:40.531Z,27.77
2023-09-06T16:16:43.032Z,27.68
2023-09-06T16:21:45.593Z,27.52
2023-09-06T16:26:48.777Z,27.38
2023-09-06T16:31:51.956Z,27.24
2023-09-06T16:36:54.603Z,27.15
2023-09-06T16:41:57.006Z,26.98
2023-09-06T16:47:00.682Z,26.82
2023-09-06T16:52:09.332Z,26.59
2023-09-06T16:57:12.704Z,26.44
2023-09-06T17:02:15.710Z,26.28
2023-09-06T17:07:23.365Z,26.13
2023-09-06T17:12:28.342Z,25.91
2023-09-06T17:17:31.511Z,25.80
2023-09-06T17:22:37.546Z,25.64
2023-09-06T17:27:43.384Z,25.49
2023-09-06T17:33:15.155Z,25.32
2023-09-06T17:38:19.370Z,25.18
2023-09-06T17:43:23.617Z,25.04
2023-09-06T17:48:27.560Z,24.92
2023-09-06T17:53:34.277Z,24.83
2023-09-06T17:58:39.924Z,24.69
2023-09-06T18:03:52.816Z,24.60
2023-09-06T18:09:21.362Z,24.47
2023-09-06T18:14:53.892Z,24.36
2023-09-06T18:19:59.091Z,24.26
2023-09-06T18:25:02.665Z,24.15
2023-09-06T18:30:11.812Z,24.05
2023-09-06T18:35:16.870Z,23.89
2023-09-06T18:40:20.698Z,23.82
2023-09-06T18:45:23.921Z,23.70
2023-09-06T18:50:27.472Z,23.68
2023-09-06T18:55:31.114Z,23.56
2023-09-06T19:00:35.898Z,23.40
2023-09-06T19:05:39.422Z,23.35
2023-09-06T19:10:43.470Z,23.25
2023-09-06T19:15:50.716Z,23.16
2023-09-06T19:20:54.002Z,23.10
2023-09-06T19:25:57.595Z,23.04
2023-09-06T19:31:01.612Z,22.92
2023-09-06T19:36:05.071Z,22.88
2023-09-06T19:41:08.305Z,22.75
2023-09-06T19:46:11.191Z,22.61
2023-09-06T19:51:13.929Z,22.53
2023-09-06T19:56:18.306Z,22.41
2023-09-06T20:01:22.142Z,22.36
2023-09-06T20:06:25.256Z,22.25
2023-09-06T20:11:29.399Z,22.21
2023-09-06T20:16:31.964Z,22.17
2023-09-06T20:21:34.906Z,22.04
2023-09-06T20:26:42.883Z,21.85
2023-09-06T20:31:46.073Z,21.74
2023-09-06T20:36:48.959Z,21.61
2023-09-06T20:41:52.370Z,21.46
2023-09-06T20:46:56.169Z,21.39
2023-09-06T20:52:08.698Z,21.32
2023-09-06T20:57:12.584Z,21.24
2023-09-06T21:02:15.745Z,21.09
2023-09-06T21:07:18.630Z,21.02
2023-09-06T21:12:21.675Z,20.94
2023-09-06T21:17:24.516Z,20.90
2023-09-06T21:22:30.046Z,20.85
2023-09-06T21:27:32.601Z,20.76
2023-09-06T21:32:36.449Z,20.76
2023-09-06T21:37:40.363Z,20.66
2023-09-06T21:42:42.913Z,20.64
2023-09-06T21:47:47.986Z,20.62
2023-09-06T21:52:50.532Z,20.51
2023-09-06T21:58:06.997Z,20.44
2023-09-06T22:03:11.982Z,20.31
2023-09-06T22:08:14.374Z,20.27
2023-09-06T22:13:18.573Z,20.23
2023-09-06T22:18:21.294Z,20.25
2023-09-06T22:23:25.172Z,20.32
2023-09-06T22:28:32.592Z,20.31
2023-09-06T22:33:36.157Z,20.22
2023-09-06T22:38:38.787Z,20.22
2023-09-06T22:43:41.472Z,20.21
2023-09-06T22:48:54.356Z,20.14
2023-09-06T22:53:58.099Z,20.15
2023-09-06T22:59:01.268Z,20.05
2023-09-06T23:04:05.993Z,19.98
2023-09-06T23:09:12.329Z,19.90
2023-09-06T23:14:18.736Z,19.80
2023-09-06T23:19:28.772Z,19.62
2023-09-06T23:24:32.494Z,19.53
2023-09-06T23:29:40.996Z,19.47
2023-09-06T23:34:48.817Z,19.38
2023-09-06T23:39:51.929Z,19.34
2023-09-06T23:44:54.550Z,19.21
2023-09-06T23:49:56.986Z,19.12
2023-09-06T23:54:59.620Z,19.19
